ECGCM LFPG-EGLC
Flight info
| Callsign | ECGCM |
|---|---|
| Flight time | N/A |
| Altitude | 24000 |
| Route | ATREX DCT VESAN DCT RATUK DCT SOVAT |
| Aircraft | C750/M-SBDE3FGHRWXY/S |
Departure
| Time | 2026-05-01 11:54 |
|---|---|
| Airport | Charles de Gaulle International Airport (LFPG) |
Arrival
| Time | N/A |
|---|---|
| Airport | London City Airport (EGLC) |
| Time | Latitude | Longitude | Altitude | Speed | Heading |
|---|---|---|---|---|---|
| 2026-05-01 11:41 | 49.01358 | 2.50492 | 350 ft | 0 kts | 356° |
| 2026-05-01 11:51 | 49.01320 | 2.50491 | 350 ft | 12 kts | 7° |
| 2026-05-01 11:52 | 49.01291 | 2.50488 | 353 ft | 0 kts | 317° |
| 2026-05-01 11:52 | 49.01329 | 2.50396 | 350 ft | 14 kts | 340° |
| 2026-05-01 11:52 | 49.01413 | 2.50386 | 350 ft | 10 kts | 17° |
| 2026-05-01 11:52 | 49.01627 | 2.50442 | 353 ft | 25 kts | 41° |
| 2026-05-01 11:53 | 49.01626 | 2.50616 | 351 ft | 21 kts | 94° |
| 2026-05-01 11:53 | 49.01636 | 2.50848 | 351 ft | 27 kts | 84° |
| 2026-05-01 11:53 | 49.01648 | 2.51131 | 353 ft | 26 kts | 75° |
| 2026-05-01 11:53 | 49.01754 | 2.51266 | 351 ft | 21 kts | 3° |
| 2026-05-01 11:54 | 49.01901 | 2.51253 | 352 ft | 20 kts | 354° |
| 2026-05-01 11:54 | 49.02047 | 2.51376 | 354 ft | 50 kts | 61° |
| 2026-05-01 11:54 | 49.02137 | 2.52493 | 440 ft | 136 kts | 85° |
| 2026-05-01 11:54 | 49.02222 | 2.53972 | 1055 ft | 152 kts | 86° |
| 2026-05-01 11:55 | 49.02303 | 2.55721 | 1532 ft | 182 kts | 87° |
| 2026-05-01 11:55 | 49.02410 | 2.57821 | 2231 ft | 213 kts | 86° |
| 2026-05-01 11:55 | 49.02537 | 2.60236 | 2990 ft | 240 kts | 86° |
| 2026-05-01 11:55 | 49.02678 | 2.62872 | 3766 ft | 265 kts | 86° |
| 2026-05-01 11:56 | 49.02778 | 2.64752 | 4535 ft | 267 kts | 87° |
| 2026-05-01 11:56 | 49.02879 | 2.66646 | 5488 ft | 266 kts | 87° |
| 2026-05-01 11:56 | 49.03655 | 2.74225 | 8298 ft | 286 kts | 62° |
| 2026-05-01 11:57 | 49.05005 | 2.76442 | 9561 ft | 288 kts | 37° |
| 2026-05-01 11:57 | 49.06212 | 2.77334 | 10259 ft | 294 kts | 18° |